sensor_id;sensor_type;location;lat;lon;timestamp;P1;durP1;ratioP1;P2;durP2;ratioP2
27367;SDS011;14839;48.106;11.618;2023-07-13T04:01:49;4.00;;;2.50;;
27367;SDS011;14839;48.106;11.618;2023-07-13T04:04:15;4.17;;;2.27;;
27367;SDS011;14839;48.106;11.618;2023-07-13T04:06:40;4.93;;;2.10;;
27367;SDS011;14839;48.106;11.618;2023-07-13T04:09:06;3.63;;;2.17;;
27367;SDS011;14839;48.106;11.618;2023-07-13T04:11:32;2.37;;;1.90;;
27367;SDS011;14839;48.106;11.618;2023-07-13T04:13:58;5.00;;;2.03;;
27367;SDS011;14839;48.106;11.618;2023-07-13T04:16:24;2.87;;;1.83;;
27367;SDS011;14839;48.106;11.618;2023-07-13T04:18:50;7.33;;;2.30;;
27367;SDS011;14839;48.106;11.618;2023-07-13T04:21:19;2.60;;;2.03;;
27367;SDS011;14839;48.106;11.618;2023-07-13T04:23:45;3.67;;;1.93;;
27367;SDS011;14839;48.106;11.618;2023-07-13T04:26:11;3.87;;;1.60;;
27367;SDS011;14839;48.106;11.618;2023-07-13T04:28:36;3.97;;;2.20;;
27367;SDS011;14839;48.106;11.618;2023-07-13T04:31:02;2.43;;;1.67;;
27367;SDS011;14839;48.106;11.618;2023-07-13T04:33:28;4.07;;;1.80;;
27367;SDS011;14839;48.106;11.618;2023-07-13T04:35:54;2.37;;;1.60;;
27367;SDS011;14839;48.106;11.618;2023-07-13T04:38:25;3.77;;;1.80;;
27367;SDS011;14839;48.106;11.618;2023-07-13T04:40:54;3.50;;;1.80;;
27367;SDS011;14839;48.106;11.618;2023-07-13T04:43:24;5.83;;;2.30;;
27367;SDS011;14839;48.106;11.618;2023-07-13T04:45:51;4.47;;;2.23;;
27367;SDS011;14839;48.106;11.618;2023-07-13T04:48:17;3.27;;;2.10;;
27367;SDS011;14839;48.106;11.618;2023-07-13T04:50:42;3.27;;;1.87;;
27367;SDS011;14839;48.106;11.618;2023-07-13T04:53:08;3.27;;;1.73;;
27367;SDS011;14839;48.106;11.618;2023-07-13T04:55:35;2.37;;;1.80;;
27367;SDS011;14839;48.106;11.618;2023-07-13T04:58:01;2.23;;;1.80;;
27367;SDS011;14839;48.106;11.618;2023-07-13T05:00:27;5.27;;;2.00;;
27367;SDS011;14839;48.106;11.618;2023-07-13T05:02:55;4.93;;;2.10;;
27367;SDS011;14839;48.106;11.618;2023-07-13T05:05:22;2.93;;;1.90;;
27367;SDS011;14839;48.106;11.618;2023-07-13T05:07:48;3.23;;;1.60;;
27367;SDS011;14839;48.106;11.618;2023-07-13T05:10:14;4.23;;;1.80;;
27367;SDS011;14839;48.106;11.618;2023-07-13T05:12:40;2.93;;;1.70;;
27367;SDS011;14839;48.106;11.618;2023-07-13T05:15:05;3.03;;;2.03;;
27367;SDS011;14839;48.106;11.618;2023-07-13T05:17:31;6.37;;;2.37;;
27367;SDS011;14839;48.106;11.618;2023-07-13T05:19:57;1.73;;;1.57;;
27367;SDS011;14839;48.106;11.618;2023-07-13T05:22:22;5.93;;;2.00;;
27367;SDS011;14839;48.106;11.618;2023-07-13T05:24:48;5.67;;;1.53;;
27367;SDS011;14839;48.106;11.618;2023-07-13T05:27:14;4.43;;;1.90;;
27367;SDS011;14839;48.106;11.618;2023-07-13T05:29:39;4.33;;;2.30;;
27367;SDS011;14839;48.106;11.618;2023-07-13T05:32:05;3.57;;;2.23;;
27367;SDS011;14839;48.106;11.618;2023-07-13T05:34:31;2.20;;;1.83;;
27367;SDS011;14839;48.106;11.618;2023-07-13T05:36:57;4.03;;;2.10;;
27367;SDS011;14839;48.106;11.618;2023-07-13T05:39:22;3.50;;;1.97;;
27367;SDS011;14839;48.106;11.618;2023-07-13T05:41:48;3.10;;;2.00;;
27367;SDS011;14839;48.106;11.618;2023-07-13T05:44:13;2.40;;;1.90;;
27367;SDS011;14839;48.106;11.618;2023-07-13T05:46:39;2.37;;;1.80;;
27367;SDS011;14839;48.106;11.618;2023-07-13T05:49:04;5.33;;;2.20;;
27367;SDS011;14839;48.106;11.618;2023-07-13T05:51:30;3.87;;;1.87;;
27367;SDS011;14839;48.106;11.618;2023-07-13T05:53:56;2.13;;;1.87;;
27367;SDS011;14839;48.106;11.618;2023-07-13T05:56:21;2.97;;;2.13;;
27367;SDS011;14839;48.106;11.618;2023-07-13T05:58:48;3.03;;;1.80;;
27367;SDS011;14839;48.106;11.618;2023-07-13T06:01:14;2.77;;;2.30;;
27367;SDS011;14839;48.106;11.618;2023-07-13T06:03:40;2.57;;;1.60;;
27367;SDS011;14839;48.106;11.618;2023-07-13T06:06:06;3.23;;;1.90;;
27367;SDS011;14839;48.106;11.618;2023-07-13T06:08:33;7.67;;;2.13;;
27367;SDS011;14839;48.106;11.618;2023-07-13T06:11:07;1.97;;;1.63;;
27367;SDS011;14839;48.106;11.618;2023-07-13T06:13:37;2.60;;;2.17;;
27367;SDS011;14839;48.106;11.618;2023-07-13T06:16:03;3.10;;;1.93;;
27367;SDS011;14839;48.106;11.618;2023-07-13T06:18:29;2.80;;;1.83;;
27367;SDS011;14839;48.106;11.618;2023-07-13T06:20:56;4.07;;;1.80;;
27367;SDS011;14839;48.106;11.618;2023-07-13T06:23:22;2.17;;;1.83;;
27367;SDS011;14839;48.106;11.618;2023-07-13T06:25:47;3.70;;;1.87;;
27367;SDS011;14839;48.106;11.618;2023-07-13T06:28:13;2.83;;;2.17;;
27367;SDS011;14839;48.106;11.618;2023-07-13T06:30:39;3.80;;;2.47;;
27367;SDS011;14839;48.106;11.618;2023-07-13T06:33:05;2.67;;;1.70;;
27367;SDS011;14839;48.106;11.618;2023-07-13T06:35:30;7.37;;;2.07;;
27367;SDS011;14839;48.106;11.618;2023-07-13T06:37:56;3.10;;;1.80;;
27367;SDS011;14839;48.106;11.618;2023-07-13T06:40:21;2.10;;;1.90;;
27367;SDS011;14839;48.106;11.618;2023-07-13T06:42:47;1.90;;;1.43;;
27367;SDS011;14839;48.106;11.618;2023-07-13T06:45:12;3.10;;;1.50;;
27367;SDS011;14839;48.106;11.618;2023-07-13T06:47:38;4.07;;;1.53;;
27367;SDS011;14839;48.106;11.618;2023-07-13T06:50:03;3.37;;;1.93;;
27367;SDS011;14839;48.106;11.618;2023-07-13T06:52:29;4.03;;;1.60;;
27367;SDS011;14839;48.106;11.618;2023-07-13T06:54:55;3.43;;;1.53;;
27367;SDS011;14839;48.106;11.618;2023-07-13T06:57:21;4.23;;;2.03;;
27367;SDS011;14839;48.106;11.618;2023-07-13T06:59:46;2.20;;;1.80;;
27367;SDS011;14839;48.106;11.618;2023-07-13T07:02:12;5.47;;;1.60;;
27367;SDS011;14839;48.106;11.618;2023-07-13T07:04:37;3.70;;;1.80;;
27367;SDS011;14839;48.106;11.618;2023-07-13T07:07:03;1.90;;;1.30;;
27367;SDS011;14839;48.106;11.618;2023-07-13T07:09:29;2.30;;;1.53;;
27367;SDS011;14839;48.106;11.618;2023-07-13T07:11:56;2.47;;;2.00;;
27367;SDS011;14839;48.106;11.618;2023-07-13T07:14:22;2.13;;;1.60;;
27367;SDS011;14839;48.106;11.618;2023-07-13T07:16:48;2.77;;;1.80;;
27367;SDS011;14839;48.106;11.618;2023-07-13T07:19:14;3.10;;;1.77;;
27367;SDS011;14839;48.106;11.618;2023-07-13T07:21:40;2.17;;;1.97;;
27367;SDS011;14839;48.106;11.618;2023-07-13T07:24:05;3.57;;;1.60;;
27367;SDS011;14839;48.106;11.618;2023-07-13T07:26:32;2.08;;;1.77;;
27367;SDS011;14839;48.106;11.618;2023-07-13T07:28:58;2.65;;;1.45;;
27367;SDS011;14839;48.106;11.618;2023-07-13T07:31:24;2.73;;;1.30;;
27367;SDS011;14839;48.106;11.618;2023-07-13T07:33:49;4.07;;;1.48;;
27367;SDS011;14839;48.106;11.618;2023-07-13T07:36:15;3.60;;;1.63;;
27367;SDS011;14839;48.106;11.618;2023-07-13T07:38:41;1.97;;;1.50;;
27367;SDS011;14839;48.106;11.618;2023-07-13T07:41:07;1.73;;;1.43;;
27367;SDS011;14839;48.106;11.618;2023-07-13T07:43:33;4.33;;;1.40;;
27367;SDS011;14839;48.106;11.618;2023-07-13T07:45:58;2.43;;;1.20;;
27367;SDS011;14839;48.106;11.618;2023-07-13T07:48:24;6.13;;;1.33;;
27367;SDS011;14839;48.106;11.618;2023-07-13T07:50:50;3.73;;;1.30;;
27367;SDS011;14839;48.106;11.618;2023-07-13T07:53:15;4.00;;;1.70;;
27367;SDS011;14839;48.106;11.618;2023-07-13T07:55:41;3.77;;;1.60;;
27367;SDS011;14839;48.106;11.618;2023-07-13T07:58:09;2.23;;;1.50;;
27367;SDS011;14839;48.106;11.618;2023-07-13T08:00:35;3.13;;;1.90;;
27367;SDS011;14839;48.106;11.618;2023-07-13T08:03:01;2.23;;;1.60;;
27367;SDS011;14839;48.106;11.618;2023-07-13T08:05:27;5.80;;;1.67;;
27367;SDS011;14839;48.106;11.618;2023-07-13T08:07:52;3.30;;;1.83;;
27367;SDS011;14839;48.106;11.618;2023-07-13T08:10:18;2.42;;;1.52;;
27367;SDS011;14839;48.106;11.618;2023-07-13T08:12:44;4.73;;;1.60;;
27367;SDS011;14839;48.106;11.618;2023-07-13T08:15:11;2.80;;;1.97;;
27367;SDS011;14839;48.106;11.618;2023-07-13T08:17:39;2.10;;;1.80;;
27367;SDS011;14839;48.106;11.618;2023-07-13T08:20:05;2.30;;;1.67;;
27367;SDS011;14839;48.106;11.618;2023-07-13T08:22:31;2.67;;;1.83;;
27367;SDS011;14839;48.106;11.618;2023-07-13T08:24:57;2.50;;;1.90;;
27367;SDS011;14839;48.106;11.618;2023-07-13T08:27:23;3.33;;;1.73;;
27367;SDS011;14839;48.106;11.618;2023-07-13T08:29:51;4.13;;;1.83;;
27367;SDS011;14839;48.106;11.618;2023-07-13T08:32:17;5.53;;;1.70;;
27367;SDS011;14839;48.106;11.618;2023-07-13T08:34:44;4.40;;;1.90;;
27367;SDS011;14839;48.106;11.618;2023-07-13T08:37:10;2.87;;;1.77;;
27367;SDS011;14839;48.106;11.618;2023-07-13T08:39:35;2.57;;;1.63;;
27367;SDS011;14839;48.106;11.618;2023-07-13T08:42:03;2.83;;;1.67;;
27367;SDS011;14839;48.106;11.618;2023-07-13T08:47:31;4.03;;;1.93;;
27367;SDS011;14839;48.106;11.618;2023-07-13T08:50:00;3.80;;;1.77;;
27367;SDS011;14839;48.106;11.618;2023-07-13T08:52:34;1.83;;;1.40;;
27367;SDS011;14839;48.106;11.618;2023-07-13T08:55:21;2.97;;;1.70;;
27367;SDS011;14839;48.106;11.618;2023-07-13T08:57:54;3.23;;;2.20;;
27367;SDS011;14839;48.106;11.618;2023-07-13T09:00:30;3.00;;;1.47;;
27367;SDS011;14839;48.106;11.618;2023-07-13T09:03:24;3.40;;;1.77;;
27367;SDS011;14839;48.106;11.618;2023-07-13T09:05:58;1.80;;;1.70;;
27367;SDS011;14839;48.106;11.618;2023-07-13T09:11:10;5.13;;;1.93;;
27367;SDS011;14839;48.106;11.618;2023-07-13T09:16:49;1.60;;;1.50;;
27367;SDS011;14839;48.106;11.618;2023-07-13T09:19:18;1.90;;;1.50;;
27367;SDS011;14839;48.106;11.618;2023-07-13T09:21:53;3.10;;;1.80;;
27367;SDS011;14839;48.106;11.618;2023-07-13T09:24:38;2.20;;;1.80;;
27367;SDS011;14839;48.106;11.618;2023-07-13T09:27:16;5.33;;;1.60;;
27367;SDS011;14839;48.106;11.618;2023-07-13T09:29:48;3.03;;;1.53;;
27367;SDS011;14839;48.106;11.618;2023-07-13T09:32:17;1.90;;;1.30;;
27367;SDS011;14839;48.106;11.618;2023-07-13T09:34:49;4.30;;;1.43;;
27367;SDS011;14839;48.106;11.618;2023-07-13T09:37:16;4.90;;;1.50;;
27367;SDS011;14839;48.106;11.618;2023-07-13T09:39:43;3.97;;;1.50;;
27367;SDS011;14839;48.106;11.618;2023-07-13T09:44:44;2.53;;;1.70;;
27367;SDS011;14839;48.106;11.618;2023-07-13T09:47:25;1.57;;;1.43;;
27367;SDS011;14839;48.106;11.618;2023-07-13T09:49:56;2.83;;;1.60;;
27367;SDS011;14839;48.106;11.618;2023-07-13T09:52:24;4.83;;;2.00;;
27367;SDS011;14839;48.106;11.618;2023-07-13T09:54:52;5.55;;;1.90;;
27367;SDS011;14839;48.106;11.618;2023-07-13T09:57:24;7.07;;;1.80;;
27367;SDS011;14839;48.106;11.618;2023-07-13T09:59:52;2.90;;;1.80;;
27367;SDS011;14839;48.106;11.618;2023-07-13T10:02:29;1.70;;;1.40;;
27367;SDS011;14839;48.106;11.618;2023-07-13T10:05:03;3.87;;;1.57;;
27367;SDS011;14839;48.106;11.618;2023-07-13T10:07:42;3.17;;;1.60;;
27367;SDS011;14839;48.106;11.618;2023-07-13T10:10:20;4.77;;;1.80;;
27367;SDS011;14839;48.106;11.618;2023-07-13T10:12:50;2.15;;;1.10;;
27367;SDS011;14839;48.106;11.618;2023-07-13T10:15:18;2.43;;;1.80;;
27367;SDS011;14839;48.106;11.618;2023-07-13T10:17:45;3.20;;;1.33;;
27367;SDS011;14839;48.106;11.618;2023-07-13T10:20:11;3.67;;;1.52;;
27367;SDS011;14839;48.106;11.618;2023-07-13T10:25:29;3.05;;;1.40;;
27367;SDS011;14839;48.106;11.618;2023-07-13T10:28:01;3.28;;;1.38;;
27367;SDS011;14839;48.106;11.618;2023-07-13T10:30:38;2.15;;;1.55;;
27367;SDS011;14839;48.106;11.618;2023-07-13T10:33:10;1.60;;;1.10;;
27367;SDS011;14839;48.106;11.618;2023-07-13T10:35:37;2.50;;;1.10;;
27367;SDS011;14839;48.106;11.618;2023-07-13T10:38:06;3.28;;;1.20;;
27367;SDS011;14839;48.106;11.618;2023-07-13T10:40:56;4.78;;;1.52;;
27367;SDS011;14839;48.106;11.618;2023-07-13T10:43:28;3.38;;;1.10;;
27367;SDS011;14839;48.106;11.618;2023-07-13T10:46:10;3.80;;;1.00;;
27367;SDS011;14839;48.106;11.618;2023-07-13T10:48:39;1.33;;;1.23;;
27367;SDS011;14839;48.106;11.618;2023-07-13T10:51:07;3.25;;;1.40;;
27367;SDS011;14839;48.106;11.618;2023-07-13T10:53:36;1.38;;;0.90;;
27367;SDS011;14839;48.106;11.618;2023-07-13T10:58:39;1.52;;;1.10;;
27367;SDS011;14839;48.106;11.618;2023-07-13T11:01:16;2.65;;;1.30;;
27367;SDS011;14839;48.106;11.618;2023-07-13T11:06:13;1.10;;;1.00;;
27367;SDS011;14839;48.106;11.618;2023-07-13T11:14:01;1.55;;;1.00;;
27367;SDS011;14839;48.106;11.618;2023-07-13T11:21:32;1.77;;;0.95;;
27367;SDS011;14839;48.106;11.618;2023-07-13T11:24:12;3.47;;;1.00;;
27367;SDS011;14839;48.106;11.618;2023-07-13T11:31:42;3.65;;;1.30;;
27367;SDS011;14839;48.106;11.618;2023-07-13T11:34:16;3.28;;;1.33;;
27367;SDS011;14839;48.106;11.618;2023-07-13T11:36:49;0.75;;;0.75;;
27367;SDS011;14839;48.106;11.618;2023-07-13T11:39:20;2.92;;;1.38;;
27367;SDS011;14839;48.106;11.618;2023-07-13T11:41:59;2.38;;;0.90;;
27367;SDS011;14839;48.106;11.618;2023-07-13T11:44:29;1.27;;;0.82;;
27367;SDS011;14839;48.106;11.618;2023-07-13T11:46:56;3.80;;;1.00;;
27367;SDS011;14839;48.106;11.618;2023-07-13T11:49:30;4.68;;;0.90;;
27367;SDS011;14839;48.106;11.618;2023-07-13T11:51:57;2.95;;;1.55;;
27367;SDS011;14839;48.106;11.618;2023-07-13T11:54:31;1.00;;;0.90;;
27367;SDS011;14839;48.106;11.618;2023-07-13T11:56:59;4.25;;;1.30;;
27367;SDS011;14839;48.106;11.618;2023-07-13T11:59:31;3.70;;;1.30;;
27367;SDS011;14839;48.106;11.618;2023-07-13T12:01:58;2.13;;;1.05;;
27367;SDS011;14839;48.106;11.618;2023-07-13T12:04:25;3.17;;;1.17;;
27367;SDS011;14839;48.106;11.618;2023-07-13T12:06:56;2.25;;;1.13;;
27367;SDS011;14839;48.106;11.618;2023-07-13T12:09:28;2.80;;;0.82;;
27367;SDS011;14839;48.106;11.618;2023-07-13T12:11:53;0.85;;;0.75;;
27367;SDS011;14839;48.106;11.618;2023-07-13T12:14:19;2.13;;;0.93;;
27367;SDS011;14839;48.106;11.618;2023-07-13T12:16:46;1.58;;;0.80;;
27367;SDS011;14839;48.106;11.618;2023-07-13T12:22:08;4.22;;;1.00;;
27367;SDS011;14839;48.106;11.618;2023-07-13T12:24:36;2.75;;;0.90;;
27367;SDS011;14839;48.106;11.618;2023-07-13T12:27:04;1.70;;;1.15;;
27367;SDS011;14839;48.106;11.618;2023-07-13T12:29:31;1.20;;;0.90;;
27367;SDS011;14839;48.106;11.618;2023-07-13T12:31:58;0.98;;;0.82;;
27367;SDS011;14839;48.106;11.618;2023-07-13T12:34:24;3.95;;;1.30;;
27367;SDS011;14839;48.106;11.618;2023-07-13T12:36:55;1.48;;;1.00;;
27367;SDS011;14839;48.106;11.618;2023-07-13T12:39:25;3.03;;;1.38;;
27367;SDS011;14839;48.106;11.618;2023-07-13T12:44:46;5.13;;;1.00;;
27367;SDS011;14839;48.106;11.618;2023-07-13T12:47:13;1.55;;;1.10;;
27367;SDS011;14839;48.106;11.618;2023-07-13T12:49:47;0.77;;;0.77;;
27367;SDS011;14839;48.106;11.618;2023-07-13T12:52:36;1.95;;;0.93;;
27367;SDS011;14839;48.106;11.618;2023-07-13T12:55:05;1.13;;;0.80;;
27367;SDS011;14839;48.106;11.618;2023-07-13T12:57:49;1.30;;;1.00;;
27367;SDS011;14839;48.106;11.618;2023-07-13T13:00:24;1.85;;;1.20;;
27367;SDS011;14839;48.106;11.618;2023-07-13T13:02:50;2.42;;;1.10;;
27367;SDS011;14839;48.106;11.618;2023-07-13T13:05:17;1.77;;;0.90;;
27367;SDS011;14839;48.106;11.618;2023-07-13T13:07:43;1.80;;;0.90;;
27367;SDS011;14839;48.106;11.618;2023-07-13T13:10:12;2.70;;;1.30;;
27367;SDS011;14839;48.106;11.618;2023-07-13T13:12:38;1.77;;;1.20;;
27367;SDS011;14839;48.106;11.618;2023-07-13T13:15:05;1.67;;;1.30;;
27367;SDS011;14839;48.106;11.618;2023-07-13T13:17:31;2.63;;;1.13;;
27367;SDS011;14839;48.106;11.618;2023-07-13T13:19:57;2.50;;;1.15;;
27367;SDS011;14839;48.106;11.618;2023-07-13T13:22:23;4.72;;;1.20;;
27367;SDS011;14839;48.106;11.618;2023-07-13T13:24:49;5.80;;;1.10;;
27367;SDS011;14839;48.106;11.618;2023-07-13T13:27:15;1.23;;;1.08;;
27367;SDS011;14839;48.106;11.618;2023-07-13T13:29:42;1.10;;;0.95;;
27367;SDS011;14839;48.106;11.618;2023-07-13T13:32:11;3.72;;;1.33;;
27367;SDS011;14839;48.106;11.618;2023-07-13T13:34:38;0.82;;;0.60;;
27367;SDS011;14839;48.106;11.618;2023-07-13T13:37:04;1.10;;;1.00;;
27367;SDS011;14839;48.106;11.618;2023-07-13T13:39:46;1.63;;;1.30;;
27367;SDS011;14839;48.106;11.618;2023-07-13T13:42:16;6.57;;;1.25;;
27367;SDS011;14839;48.106;11.618;2023-07-13T13:44:41;1.10;;;1.00;;
27367;SDS011;14839;48.106;11.618;2023-07-13T13:47:12;1.35;;;1.00;;
27367;SDS011;14839;48.106;11.618;2023-07-13T13:49:47;1.50;;;1.00;;
27367;SDS011;14839;48.106;11.618;2023-07-13T13:52:13;1.25;;;0.80;;
27367;SDS011;14839;48.106;11.618;2023-07-13T13:54:38;2.83;;;0.88;;
27367;SDS011;14839;48.106;11.618;2023-07-13T13:57:04;3.72;;;1.10;;
27367;SDS011;14839;48.106;11.618;2023-07-13T13:59:30;2.55;;;0.80;;
27367;SDS011;14839;48.106;11.618;2023-07-13T14:01:57;1.95;;;0.90;;
27367;SDS011;14839;48.106;11.618;2023-07-13T14:04:25;1.27;;;0.85;;
27367;SDS011;14839;48.106;11.618;2023-07-13T14:06:50;1.73;;;0.77;;
27367;SDS011;14839;48.106;11.618;2023-07-13T14:09:16;1.50;;;0.90;;
27367;SDS011;14839;48.106;11.618;2023-07-13T14:11:44;1.70;;;0.98;;
27367;SDS011;14839;48.106;11.618;2023-07-13T14:14:18;0.80;;;0.80;;
27367;SDS011;14839;48.106;11.618;2023-07-13T14:16:47;0.93;;;0.80;;
27367;SDS011;14839;48.106;11.618;2023-07-13T14:19:18;1.15;;;0.82;;
27367;SDS011;14839;48.106;11.618;2023-07-13T14:21:44;4.40;;;1.20;;
27367;SDS011;14839;48.106;11.618;2023-07-13T14:24:10;0.93;;;0.80;;
27367;SDS011;14839;48.106;11.618;2023-07-13T14:26:36;1.20;;;0.88;;
27367;SDS011;14839;48.106;11.618;2023-07-13T14:29:05;3.03;;;0.90;;
27367;SDS011;14839;48.106;11.618;2023-07-13T14:31:37;1.67;;;1.00;;
27367;SDS011;14839;48.106;11.618;2023-07-13T14:34:03;2.55;;;0.90;;
27367;SDS011;14839;48.106;11.618;2023-07-13T14:36:29;2.55;;;0.90;;
27367;SDS011;14839;48.106;11.618;2023-07-13T14:38:57;1.52;;;0.90;;
27367;SDS011;14839;48.106;11.618;2023-07-13T14:41:23;1.85;;;1.08;;
27367;SDS011;14839;48.106;11.618;2023-07-13T14:43:49;3.47;;;1.10;;
27367;SDS011;14839;48.106;11.618;2023-07-13T14:46:26;1.35;;;0.80;;
27367;SDS011;14839;48.106;11.618;2023-07-13T14:48:59;5.40;;;1.17;;
27367;SDS011;14839;48.106;11.618;2023-07-13T14:51:28;1.58;;;1.13;;
27367;SDS011;14839;48.106;11.618;2023-07-13T14:53:54;4.05;;;1.05;;
27367;SDS011;14839;48.106;11.618;2023-07-13T14:56:20;2.30;;;0.90;;
27367;SDS011;14839;48.106;11.618;2023-07-13T14:58:45;5.30;;;0.90;;
27367;SDS011;14839;48.106;11.618;2023-07-13T15:01:12;1.88;;;1.00;;
27367;SDS011;14839;48.106;11.618;2023-07-13T15:03:41;2.67;;;0.80;;
27367;SDS011;14839;48.106;11.618;2023-07-13T15:06:13;2.85;;;1.08;;
27367;SDS011;14839;48.106;11.618;2023-07-13T15:08:39;3.47;;;1.00;;
27367;SDS011;14839;48.106;11.618;2023-07-13T15:11:08;1.35;;;1.00;;
27367;SDS011;14839;48.106;11.618;2023-07-13T15:13:36;3.08;;;0.90;;
27367;SDS011;14839;48.106;11.618;2023-07-13T15:16:03;1.70;;;1.02;;
27367;SDS011;14839;48.106;11.618;2023-07-13T15:18:30;1.45;;;1.00;;
27367;SDS011;14839;48.106;11.618;2023-07-13T15:20:56;2.75;;;0.80;;
27367;SDS011;14839;48.106;11.618;2023-07-13T15:23:25;1.77;;;0.93;;
27367;SDS011;14839;48.106;11.618;2023-07-13T15:25:51;4.00;;;1.00;;
27367;SDS011;14839;48.106;11.618;2023-07-13T15:28:17;2.22;;;1.05;;
27367;SDS011;14839;48.106;11.618;2023-07-13T15:30:46;2.72;;;0.90;;
27367;SDS011;14839;48.106;11.618;2023-07-13T15:33:14;1.05;;;0.95;;
27367;SDS011;14839;48.106;11.618;2023-07-13T15:35:50;1.85;;;1.00;;
27367;SDS011;14839;48.106;11.618;2023-07-13T15:38:20;1.25;;;0.95;;
27367;SDS011;14839;48.106;11.618;2023-07-13T15:40:52;1.23;;;0.88;;
27367;SDS011;14839;48.106;11.618;2023-07-13T15:43:19;1.88;;;0.80;;
27367;SDS011;14839;48.106;11.618;2023-07-13T15:45:45;1.25;;;1.13;;
27367;SDS011;14839;48.106;11.618;2023-07-13T15:48:16;2.17;;;1.23;;
27367;SDS011;14839;48.106;11.618;2023-07-13T15:50:44;1.00;;;0.90;;
27367;SDS011;14839;48.106;11.618;2023-07-13T15:53:15;1.88;;;0.88;;
27367;SDS011;14839;48.106;11.618;2023-07-13T15:55:51;2.40;;;1.10;;
27367;SDS011;14839;48.106;11.618;2023-07-13T15:58:17;1.17;;;0.90;;
27367;SDS011;14839;48.106;11.618;2023-07-13T16:00:43;2.38;;;0.90;;
27367;SDS011;14839;48.106;11.618;2023-07-13T16:03:10;1.90;;;1.40;;
27367;SDS011;14839;48.106;11.618;2023-07-13T16:05:36;1.65;;;1.02;;
27367;SDS011;14839;48.106;11.618;2023-07-13T16:08:03;1.08;;;0.90;;
27367;SDS011;14839;48.106;11.618;2023-07-13T16:10:36;1.95;;;0.80;;
27367;SDS011;14839;48.106;11.618;2023-07-13T16:13:05;1.17;;;0.90;;
27367;SDS011;14839;48.106;11.618;2023-07-13T16:15:40;2.65;;;1.45;;
27367;SDS011;14839;48.106;11.618;2023-07-13T16:18:09;2.63;;;1.45;;
27367;SDS011;14839;48.106;11.618;2023-07-13T16:20:37;1.20;;;0.93;;
27367;SDS011;14839;48.106;11.618;2023-07-13T16:23:03;1.55;;;0.90;;
27367;SDS011;14839;48.106;11.618;2023-07-13T16:25:29;3.45;;;1.33;;
27367;SDS011;14839;48.106;11.618;2023-07-13T16:27:55;1.95;;;1.00;;
27367;SDS011;14839;48.106;11.618;2023-07-13T16:30:25;1.55;;;1.00;;
27367;SDS011;14839;48.106;11.618;2023-07-13T16:32:54;2.03;;;1.10;;
27367;SDS011;14839;48.106;11.618;2023-07-13T16:35:23;4.88;;;1.17;;
27367;SDS011;14839;48.106;11.618;2023-07-13T16:37:50;2.08;;;1.17;;
27367;SDS011;14839;48.106;11.618;2023-07-13T16:40:27;1.38;;;0.80;;
27367;SDS011;14839;48.106;11.618;2023-07-13T16:42:55;1.58;;;1.10;;
27367;SDS011;14839;48.106;11.618;2023-07-13T16:45:23;2.60;;;0.98;;
27367;SDS011;14839;48.106;11.618;2023-07-13T16:47:53;1.23;;;0.90;;
27367;SDS011;14839;48.106;11.618;2023-07-13T16:50:20;2.28;;;1.55;;
27367;SDS011;14839;48.106;11.618;2023-07-13T16:52:48;1.90;;;1.05;;
27367;SDS011;14839;48.106;11.618;2023-07-13T16:55:15;3.03;;;1.10;;
27367;SDS011;14839;48.106;11.618;2023-07-13T16:57:44;2.78;;;1.00;;
27367;SDS011;14839;48.106;11.618;2023-07-13T17:02:43;0.75;;;0.70;;
27367;SDS011;14839;48.106;11.618;2023-07-13T17:05:10;1.80;;;1.10;;
27367;SDS011;14839;48.106;11.618;2023-07-13T17:07:37;2.40;;;1.30;;
27367;SDS011;14839;48.106;11.618;2023-07-13T17:10:03;1.95;;;1.10;;
27367;SDS011;14839;48.106;11.618;2023-07-13T17:12:30;1.25;;;0.70;;
27367;SDS011;14839;48.106;11.618;2023-07-13T17:14:56;1.80;;;0.90;;
27367;SDS011;14839;48.106;11.618;2023-07-13T17:17:25;2.63;;;1.20;;
27367;SDS011;14839;48.106;11.618;2023-07-13T17:19:54;2.30;;;0.90;;
27367;SDS011;14839;48.106;11.618;2023-07-13T17:22:19;2.90;;;1.30;;
27367;SDS011;14839;48.106;11.618;2023-07-13T17:24:45;2.05;;;1.27;;
27367;SDS011;14839;48.106;11.618;2023-07-13T17:27:13;2.35;;;1.20;;
27367;SDS011;14839;48.106;11.618;2023-07-13T17:29:40;3.20;;;1.30;;
27367;SDS011;14839;48.106;11.618;2023-07-13T17:32:06;3.28;;;1.10;;
27367;SDS011;14839;48.106;11.618;2023-07-13T17:34:40;2.47;;;1.08;;
27367;SDS011;14839;48.106;11.618;2023-07-13T17:37:10;2.28;;;0.90;;
27367;SDS011;14839;48.106;11.618;2023-07-13T17:39:39;2.53;;;1.00;;
27367;SDS011;14839;48.106;11.618;2023-07-13T17:42:04;2.78;;;1.13;;
27367;SDS011;14839;48.106;11.618;2023-07-13T17:44:30;2.05;;;0.93;;
27367;SDS011;14839;48.106;11.618;2023-07-13T17:46:56;2.05;;;0.88;;
27367;SDS011;14839;48.106;11.618;2023-07-13T17:49:23;1.65;;;1.05;;
27367;SDS011;14839;48.106;11.618;2023-07-13T17:51:57;2.55;;;1.40;;
27367;SDS011;14839;48.106;11.618;2023-07-13T17:54:24;2.83;;;1.35;;
27367;SDS011;14839;48.106;11.618;2023-07-13T17:56:51;1.60;;;1.40;;
27367;SDS011;14839;48.106;11.618;2023-07-13T17:59:17;2.28;;;1.10;;
27367;SDS011;14839;48.106;11.618;2023-07-13T18:01:43;4.45;;;1.17;;
27367;SDS011;14839;48.106;11.618;2023-07-13T18:04:12;1.08;;;0.80;;
27367;SDS011;14839;48.106;11.618;2023-07-13T18:06:41;1.25;;;1.00;;
27367;SDS011;14839;48.106;11.618;2023-07-13T18:09:18;1.40;;;1.08;;
27367;SDS011;14839;48.106;11.618;2023-07-13T18:11:46;1.30;;;1.00;;
27367;SDS011;14839;48.106;11.618;2023-07-13T18:14:11;3.05;;;1.42;;
27367;SDS011;14839;48.106;11.618;2023-07-13T18:16:37;2.33;;;1.05;;
27367;SDS011;14839;48.106;11.618;2023-07-13T18:19:04;2.30;;;1.10;;
27367;SDS011;14839;48.106;11.618;2023-07-13T18:21:40;1.42;;;0.88;;
27367;SDS011;14839;48.106;11.618;2023-07-13T18:24:08;1.27;;;0.90;;
27367;SDS011;14839;48.106;11.618;2023-07-13T18:26:34;1.52;;;1.02;;
27367;SDS011;14839;48.106;11.618;2023-07-13T18:29:02;4.60;;;1.45;;
27367;SDS011;14839;48.106;11.618;2023-07-13T18:31:30;2.33;;;1.58;;
27367;SDS011;14839;48.106;11.618;2023-07-13T18:33:59;4.70;;;1.13;;
27367;SDS011;14839;48.106;11.618;2023-07-13T18:36:27;1.45;;;1.17;;
27367;SDS011;14839;48.106;11.618;2023-07-13T18:38:53;2.25;;;1.27;;
27367;SDS011;14839;48.106;11.618;2023-07-13T18:41:19;2.85;;;1.35;;
27367;SDS011;14839;48.106;11.618;2023-07-13T18:43:48;4.22;;;1.38;;
27367;SDS011;14839;48.106;11.618;2023-07-13T18:46:21;2.05;;;1.38;;
27367;SDS011;14839;48.106;11.618;2023-07-13T18:48:56;1.85;;;1.25;;
27367;SDS011;14839;48.106;11.618;2023-07-13T18:51:22;5.13;;;1.40;;
27367;SDS011;14839;48.106;11.618;2023-07-13T18:53:48;1.33;;;1.17;;
27367;SDS011;14839;48.106;11.618;2023-07-13T18:56:14;3.30;;;1.50;;
27367;SDS011;14839;48.106;11.618;2023-07-13T18:58:40;5.53;;;1.80;;
27367;SDS011;14839;48.106;11.618;2023-07-13T19:01:27;6.72;;;2.25;;
27367;SDS011;14839;48.106;11.618;2023-07-13T19:03:56;3.35;;;2.35;;
27367;SDS011;14839;48.106;11.618;2023-07-13T19:06:22;5.32;;;2.80;;
27367;SDS011;14839;48.106;11.618;2023-07-13T19:08:47;4.43;;;2.45;;
27367;SDS011;14839;48.106;11.618;2023-07-13T19:11:15;4.25;;;2.25;;
27367;SDS011;14839;48.106;11.618;2023-07-13T19:13:44;4.05;;;2.13;;
27367;SDS011;14839;48.106;11.618;2023-07-13T19:16:10;4.07;;;2.25;;
27367;SDS011;14839;48.106;11.618;2023-07-13T19:18:38;2.53;;;1.95;;
27367;SDS011;14839;48.106;11.618;2023-07-13T19:21:08;2.75;;;1.67;;
27367;SDS011;14839;48.106;11.618;2023-07-13T19:23:42;2.03;;;1.55;;